sensor_id;sensor_type;location;lat;lon;timestamp;pressure;altitude;pressure_sealevel;temperature;humidity
74242;BME280;62599;49.146;10.426;2023-04-01T00:00:17;94334.59;;;6.40;100.00
74242;BME280;62599;49.146;10.426;2023-04-01T00:02:44;94317.78;;;6.40;100.00
74242;BME280;62599;49.146;10.426;2023-04-01T00:05:13;94329.34;;;6.44;100.00
74242;BME280;62599;49.146;10.426;2023-04-01T00:07:40;94320.22;;;6.45;100.00
74242;BME280;62599;49.146;10.426;2023-04-01T00:10:10;94324.44;;;6.46;100.00
74242;BME280;62599;49.146;10.426;2023-04-01T00:12:37;94323.22;;;6.43;100.00
74242;BME280;62599;49.146;10.426;2023-04-01T00:15:04;94316.09;;;6.35;100.00
74242;BME280;62599;49.146;10.426;2023-04-01T00:17:32;94327.03;;;6.30;100.00
74242;BME280;62599;49.146;10.426;2023-04-01T00:19:58;94322.56;;;6.34;100.00
74242;BME280;62599;49.146;10.426;2023-04-01T00:22:24;94313.00;;;6.33;100.00
74242;BME280;62599;49.146;10.426;2023-04-01T00:24:50;94324.94;;;6.36;100.00
74242;BME280;62599;49.146;10.426;2023-04-01T00:27:15;94321.91;;;6.37;100.00
74242;BME280;62599;49.146;10.426;2023-04-01T00:29:42;94323.44;;;6.38;100.00
74242;BME280;62599;49.146;10.426;2023-04-01T00:32:07;94317.69;;;6.36;100.00
74242;BME280;62599;49.146;10.426;2023-04-01T00:34:33;94304.06;;;6.41;100.00
74242;BME280;62599;49.146;10.426;2023-04-01T00:36:58;94325.25;;;6.46;100.00
74242;BME280;62599;49.146;10.426;2023-04-01T00:39:24;94322.47;;;6.43;100.00
74242;BME280;62599;49.146;10.426;2023-04-01T00:41:49;94328.78;;;6.50;100.00
74242;BME280;62599;49.146;10.426;2023-04-01T00:44:21;94315.94;;;6.56;100.00
74242;BME280;62599;49.146;10.426;2023-04-01T00:46:47;94320.25;;;6.61;99.72
74242;BME280;62599;49.146;10.426;2023-04-01T00:49:14;94330.38;;;6.67;98.27
74242;BME280;62599;49.146;10.426;2023-04-01T00:51:45;94331.97;;;6.68;98.77
74242;BME280;62599;49.146;10.426;2023-04-01T00:54:16;94321.56;;;6.79;98.57
74242;BME280;62599;49.146;10.426;2023-04-01T00:56:54;94335.25;;;6.78;97.62
74242;BME280;62599;49.146;10.426;2023-04-01T00:59:34;94327.59;;;6.76;97.70
74242;BME280;62599;49.146;10.426;2023-04-01T01:02:03;94317.13;;;6.71;97.71
74242;BME280;62599;49.146;10.426;2023-04-01T01:04:33;94320.81;;;6.66;97.46
74242;BME280;62599;49.146;10.426;2023-04-01T01:10:10;94311.81;;;6.59;98.17
74242;BME280;62599;49.146;10.426;2023-04-01T01:25:09;94314.91;;;6.61;97.61
74242;BME280;62599;49.146;10.426;2023-04-01T01:27:41;94309.19;;;6.46;98.71
74242;BME280;62599;49.146;10.426;2023-04-01T01:35:33;94302.06;;;6.38;99.95
74242;BME280;62599;49.146;10.426;2023-04-01T01:38:14;94300.50;;;6.37;100.00
74242;BME280;62599;49.146;10.426;2023-04-01T01:40:44;94295.47;;;6.48;100.00
74242;BME280;62599;49.146;10.426;2023-04-01T01:43:14;94300.72;;;6.44;100.00
74242;BME280;62599;49.146;10.426;2023-04-01T01:45:44;94303.84;;;6.46;99.89
74242;BME280;62599;49.146;10.426;2023-04-01T01:48:11;94300.97;;;6.39;100.00
74242;BME280;62599;49.146;10.426;2023-04-01T01:50:38;94304.97;;;6.33;100.00
74242;BME280;62599;49.146;10.426;2023-04-01T01:53:08;94290.28;;;6.27;100.00
74242;BME280;62599;49.146;10.426;2023-04-01T01:55:36;94297.97;;;6.29;100.00
74242;BME280;62599;49.146;10.426;2023-04-01T01:58:30;94297.88;;;6.25;100.00
74242;BME280;62599;49.146;10.426;2023-04-01T02:00:59;94302.53;;;6.28;100.00
74242;BME280;62599;49.146;10.426;2023-04-01T02:03:29;94285.59;;;6.24;100.00
74242;BME280;62599;49.146;10.426;2023-04-01T02:05:59;94296.91;;;6.17;100.00
74242;BME280;62599;49.146;10.426;2023-04-01T02:08:39;94292.78;;;6.08;100.00
74242;BME280;62599;49.146;10.426;2023-04-01T02:11:08;94298.44;;;6.06;100.00
74242;BME280;62599;49.146;10.426;2023-04-01T02:13:43;94301.13;;;6.06;100.00
74242;BME280;62599;49.146;10.426;2023-04-01T02:16:20;94298.13;;;6.08;100.00
74242;BME280;62599;49.146;10.426;2023-04-01T02:18:50;94297.78;;;6.09;100.00
74242;BME280;62599;49.146;10.426;2023-04-01T02:21:20;94300.34;;;6.18;100.00
74242;BME280;62599;49.146;10.426;2023-04-01T02:23:46;94288.72;;;6.26;100.00
74242;BME280;62599;49.146;10.426;2023-04-01T02:26:13;94305.75;;;6.34;100.00
74242;BME280;62599;49.146;10.426;2023-04-01T02:28:40;94303.75;;;6.31;100.00
74242;BME280;62599;49.146;10.426;2023-04-01T02:31:09;94306.63;;;6.38;100.00
74242;BME280;62599;49.146;10.426;2023-04-01T02:33:37;94297.59;;;6.42;100.00
74242;BME280;62599;49.146;10.426;2023-04-01T02:36:04;94310.75;;;6.47;100.00
74242;BME280;62599;49.146;10.426;2023-04-01T02:38:30;94300.81;;;6.48;100.00
74242;BME280;62599;49.146;10.426;2023-04-01T02:40:59;94302.25;;;6.45;100.00
74242;BME280;62599;49.146;10.426;2023-04-01T02:43:26;94301.16;;;6.46;100.00
74242;BME280;62599;49.146;10.426;2023-04-01T02:45:52;94305.59;;;6.55;99.96
74242;BME280;62599;49.146;10.426;2023-04-01T02:48:17;94304.47;;;6.56;99.99
74242;BME280;62599;49.146;10.426;2023-04-01T02:50:42;94312.94;;;6.58;99.99
74242;BME280;62599;49.146;10.426;2023-04-01T02:53:08;94297.31;;;6.60;99.28
74242;BME280;62599;49.146;10.426;2023-04-01T02:55:34;94308.00;;;6.60;99.61
74242;BME280;62599;49.146;10.426;2023-04-01T02:57:59;94302.91;;;6.55;99.51
74242;BME280;62599;49.146;10.426;2023-04-01T03:00:25;94315.63;;;6.58;99.41
74242;BME280;62599;49.146;10.426;2023-04-01T03:02:51;94318.72;;;6.60;99.54
74242;BME280;62599;49.146;10.426;2023-04-01T03:05:16;94316.28;;;6.55;99.58
74242;BME280;62599;49.146;10.426;2023-04-01T03:07:42;94318.97;;;6.55;99.79
74242;BME280;62599;49.146;10.426;2023-04-01T03:10:08;94323.09;;;6.52;100.00
74242;BME280;62599;49.146;10.426;2023-04-01T03:12:33;94327.47;;;6.44;100.00
74242;BME280;62599;49.146;10.426;2023-04-01T03:14:58;94316.56;;;6.37;100.00
74242;BME280;62599;49.146;10.426;2023-04-01T03:17:27;94332.50;;;6.34;100.00
74242;BME280;62599;49.146;10.426;2023-04-01T03:19:52;94327.41;;;6.29;100.00
74242;BME280;62599;49.146;10.426;2023-04-01T03:22:18;94325.59;;;6.33;100.00
74242;BME280;62599;49.146;10.426;2023-04-01T03:24:46;94327.03;;;6.30;100.00
74242;BME280;62599;49.146;10.426;2023-04-01T03:27:12;94329.63;;;6.26;100.00
74242;BME280;62599;49.146;10.426;2023-04-01T03:29:37;94332.28;;;6.26;100.00
74242;BME280;62599;49.146;10.426;2023-04-01T03:32:02;94329.16;;;6.24;100.00
74242;BME280;62599;49.146;10.426;2023-04-01T03:34:28;94336.28;;;6.33;100.00
74242;BME280;62599;49.146;10.426;2023-04-01T03:36:53;94343.19;;;6.34;100.00
74242;BME280;62599;49.146;10.426;2023-04-01T03:39:19;94343.88;;;6.31;100.00
74242;BME280;62599;49.146;10.426;2023-04-01T03:41:45;94341.66;;;6.33;100.00
74242;BME280;62599;49.146;10.426;2023-04-01T03:44:11;94341.97;;;6.31;100.00
74242;BME280;62599;49.146;10.426;2023-04-01T03:46:36;94343.19;;;6.34;100.00
74242;BME280;62599;49.146;10.426;2023-04-01T03:49:02;94343.53;;;6.32;100.00
74242;BME280;62599;49.146;10.426;2023-04-01T03:51:27;94345.66;;;6.26;100.00
74242;BME280;62599;49.146;10.426;2023-04-01T03:53:53;94357.00;;;6.23;100.00
74242;BME280;62599;49.146;10.426;2023-04-01T03:56:18;94348.88;;;6.20;100.00
74242;BME280;62599;49.146;10.426;2023-04-01T03:58:44;94358.69;;;6.16;100.00
74242;BME280;62599;49.146;10.426;2023-04-01T04:01:21;94348.69;;;6.13;100.00
74242;BME280;62599;49.146;10.426;2023-04-01T04:03:46;94354.56;;;6.06;100.00
74242;BME280;62599;49.146;10.426;2023-04-01T04:06:14;94355.81;;;6.09;100.00
74242;BME280;62599;49.146;10.426;2023-04-01T04:08:39;94365.38;;;6.10;100.00
74242;BME280;62599;49.146;10.426;2023-04-01T04:11:05;94343.78;;;6.02;100.00
74242;BME280;62599;49.146;10.426;2023-04-01T04:13:34;94345.13;;;5.96;100.00
74242;BME280;62599;49.146;10.426;2023-04-01T04:15:59;94333.31;;;5.97;100.00
74242;BME280;62599;49.146;10.426;2023-04-01T04:18:28;94338.06;;;5.92;100.00
74242;BME280;62599;49.146;10.426;2023-04-01T04:20:54;94342.00;;;5.94;100.00
74242;BME280;62599;49.146;10.426;2023-04-01T04:23:19;94347.34;;;5.94;100.00
74242;BME280;62599;49.146;10.426;2023-04-01T04:26:07;94340.47;;;5.93;100.00
74242;BME280;62599;49.146;10.426;2023-04-01T04:28:33;94347.69;;;5.93;100.00
74242;BME280;62599;49.146;10.426;2023-04-01T04:30:59;94351.78;;;5.90;100.00
74242;BME280;62599;49.146;10.426;2023-04-01T04:33:25;94347.22;;;5.91;100.00
74242;BME280;62599;49.146;10.426;2023-04-01T04:35:51;94359.78;;;5.90;100.00
74242;BME280;62599;49.146;10.426;2023-04-01T04:38:20;94338.91;;;5.92;100.00
74242;BME280;62599;49.146;10.426;2023-04-01T04:40:45;94349.72;;;5.96;100.00
74242;BME280;62599;49.146;10.426;2023-04-01T04:43:12;94347.03;;;5.96;100.00
74242;BME280;62599;49.146;10.426;2023-04-01T04:45:38;94346.69;;;5.97;100.00
74242;BME280;62599;49.146;10.426;2023-04-01T04:48:03;94351.16;;;5.93;100.00
74242;BME280;62599;49.146;10.426;2023-04-01T04:50:29;94351.25;;;5.97;100.00
74242;BME280;62599;49.146;10.426;2023-04-01T04:52:54;94357.13;;;6.02;100.00
74242;BME280;62599;49.146;10.426;2023-04-01T04:55:20;94345.00;;;6.05;100.00
74242;BME280;62599;49.146;10.426;2023-04-01T04:57:46;94347.56;;;6.01;100.00
74242;BME280;62599;49.146;10.426;2023-04-01T05:00:11;94343.88;;;6.06;100.00
74242;BME280;62599;49.146;10.426;2023-04-01T05:02:37;94346.25;;;6.08;100.00
74242;BME280;62599;49.146;10.426;2023-04-01T05:05:03;94350.59;;;6.00;100.00
74242;BME280;62599;49.146;10.426;2023-04-01T05:07:29;94341.91;;;6.03;100.00
74242;BME280;62599;49.146;10.426;2023-04-01T05:09:54;94344.34;;;6.08;100.00
74242;BME280;62599;49.146;10.426;2023-04-01T05:12:20;94340.91;;;6.08;100.00
74242;BME280;62599;49.146;10.426;2023-04-01T05:14:45;94338.34;;;6.11;100.00
74242;BME280;62599;49.146;10.426;2023-04-01T05:17:12;94347.13;;;6.12;100.00
74242;BME280;62599;49.146;10.426;2023-04-01T05:19:38;94344.91;;;6.14;100.00
74242;BME280;62599;49.146;10.426;2023-04-01T05:22:03;94351.69;;;6.11;100.00
74242;BME280;62599;49.146;10.426;2023-04-01T05:24:29;94343.31;;;6.13;100.00
74242;BME280;62599;49.146;10.426;2023-04-01T05:26:55;94344.91;;;6.14;100.00
74242;BME280;62599;49.146;10.426;2023-04-01T05:29:21;94336.88;;;6.14;100.00
74242;BME280;62599;49.146;10.426;2023-04-01T05:31:46;94338.97;;;6.20;100.00
74242;BME280;62599;49.146;10.426;2023-04-01T05:34:13;94330.63;;;6.22;99.63
74242;BME280;62599;49.146;10.426;2023-04-01T05:36:38;94340.31;;;6.26;98.71
74242;BME280;62599;49.146;10.426;2023-04-01T05:39:03;94346.22;;;6.32;97.75
74242;BME280;62599;49.146;10.426;2023-04-01T05:41:29;94346.22;;;6.32;98.38
74242;BME280;62599;49.146;10.426;2023-04-01T05:43:54;94342.84;;;6.35;97.89
74242;BME280;62599;49.146;10.426;2023-04-01T05:46:20;94348.66;;;6.37;97.62
74242;BME280;62599;49.146;10.426;2023-04-01T05:48:46;94341.28;;;6.46;96.38
74242;BME280;62599;49.146;10.426;2023-04-01T05:51:13;94331.56;;;6.54;95.35
74242;BME280;62599;49.146;10.426;2023-04-01T05:53:39;94334.66;;;6.56;94.30
74242;BME280;62599;49.146;10.426;2023-04-01T05:56:05;94343.72;;;6.51;94.71
74242;BME280;62599;49.146;10.426;2023-04-01T05:58:31;94343.03;;;6.55;95.24
74242;BME280;62599;49.146;10.426;2023-04-01T06:01:03;94351.50;;;6.57;94.80
74242;BME280;62599;49.146;10.426;2023-04-01T06:03:29;94336.78;;;6.63;94.35
74242;BME280;62599;49.146;10.426;2023-04-01T06:05:55;94348.78;;;6.69;93.55
74242;BME280;62599;49.146;10.426;2023-04-01T06:08:20;94345.97;;;6.78;93.18
74242;BME280;62599;49.146;10.426;2023-04-01T06:11:01;94349.97;;;6.84;92.11
74242;BME280;62599;49.146;10.426;2023-04-01T06:16:27;94337.31;;;6.96;90.58
74242;BME280;62599;49.146;10.426;2023-04-01T06:35:51;94337.28;;;7.40;88.13
74242;BME280;62599;49.146;10.426;2023-04-01T06:41:16;94337.38;;;7.44;87.54
74242;BME280;62599;49.146;10.426;2023-04-01T06:46:57;94332.38;;;7.42;87.59
74242;BME280;62599;49.146;10.426;2023-04-01T06:54:50;94315.94;;;7.91;84.33
74242;BME280;62599;49.146;10.426;2023-04-01T06:59:59;94318.28;;;7.93;84.74
74242;BME280;62599;49.146;10.426;2023-04-01T07:04:58;94308.34;;;7.93;83.07
74242;BME280;62599;49.146;10.426;2023-04-01T07:07:42;94309.72;;;8.03;83.80
74242;BME280;62599;49.146;10.426;2023-04-01T07:10:34;94292.41;;;8.01;82.53
74242;BME280;62599;49.146;10.426;2023-04-01T07:13:05;94306.25;;;8.03;82.78
74242;BME280;62599;49.146;10.426;2023-04-01T07:15:38;94293.28;;;8.05;82.00
74242;BME280;62599;49.146;10.426;2023-04-01T07:18:12;94293.56;;;8.00;82.23
74242;BME280;62599;49.146;10.426;2023-04-01T07:20:41;94298.88;;;8.15;81.19
74242;BME280;62599;49.146;10.426;2023-04-01T07:23:36;94300.78;;;8.15;81.86
74242;BME280;62599;49.146;10.426;2023-04-01T07:26:15;94301.63;;;8.19;81.04
74242;BME280;62599;49.146;10.426;2023-04-01T07:28:42;94298.75;;;8.28;81.25
74242;BME280;62599;49.146;10.426;2023-04-01T07:36:37;94317.34;;;8.20;80.56
74242;BME280;62599;49.146;10.426;2023-04-01T07:39:32;94320.41;;;8.19;80.59
74242;BME280;62599;49.146;10.426;2023-04-01T07:45:05;94318.56;;;8.23;80.62
74242;BME280;62599;49.146;10.426;2023-04-01T07:51:02;94324.72;;;8.39;80.06
74242;BME280;62599;49.146;10.426;2023-04-01T07:56:16;94327.28;;;8.36;78.98
74242;BME280;62599;49.146;10.426;2023-04-01T07:59:12;94329.19;;;8.35;78.36
74242;BME280;62599;49.146;10.426;2023-04-01T08:07:07;94339.88;;;8.86;77.33
74242;BME280;62599;49.146;10.426;2023-04-01T08:23:17;94333.81;;;9.55;74.42
74242;BME280;62599;49.146;10.426;2023-04-01T08:26:00;94334.56;;;9.52;74.34
74242;BME280;62599;49.146;10.426;2023-04-01T08:28:44;94330.72;;;9.53;74.12
74242;BME280;62599;49.146;10.426;2023-04-01T08:33:56;94343.03;;;9.54;73.58
74242;BME280;62599;49.146;10.426;2023-04-01T08:36:34;94336.22;;;9.37;74.79
74242;BME280;62599;49.146;10.426;2023-04-01T08:39:09;94345.69;;;9.31;75.08
74242;BME280;62599;49.146;10.426;2023-04-01T08:47:52;94348.84;;;9.56;75.22
74242;BME280;62599;49.146;10.426;2023-04-01T08:50:26;94335.25;;;9.49;75.14
74242;BME280;62599;49.146;10.426;2023-04-01T08:53:03;94328.44;;;9.55;75.51
74242;BME280;62599;49.146;10.426;2023-04-01T09:23:10;94359.19;;;8.57;85.22
74242;BME280;62599;49.146;10.426;2023-04-01T09:37:31;94360.13;;;8.13;87.31
74242;BME280;62599;49.146;10.426;2023-04-01T09:43:01;94370.50;;;8.15;88.32
74242;BME280;62599;49.146;10.426;2023-04-01T09:45:53;94354.66;;;8.26;88.36
74242;BME280;62599;49.146;10.426;2023-04-01T09:54:16;94365.28;;;8.54;86.40
74242;BME280;62599;49.146;10.426;2023-04-01T10:10:25;94363.44;;;8.97;85.47
74242;BME280;62599;49.146;10.426;2023-04-01T10:13:18;94356.09;;;8.74;86.91
74242;BME280;62599;49.146;10.426;2023-04-01T10:23:46;94379.84;;;7.89;92.01
74242;BME280;62599;49.146;10.426;2023-04-01T10:32:15;94374.50;;;7.74;95.08
74242;BME280;62599;49.146;10.426;2023-04-01T10:35:01;94370.25;;;7.57;95.93
74242;BME280;62599;49.146;10.426;2023-04-01T10:43:50;94362.81;;;7.66;97.07
74242;BME280;62599;49.146;10.426;2023-04-01T11:17:15;94364.84;;;8.52;93.19
74242;BME280;62599;49.146;10.426;2023-04-01T11:31:22;94371.78;;;8.91;92.70
74242;BME280;62599;49.146;10.426;2023-04-01T11:39:24;94369.16;;;9.14;89.47
74242;BME280;62599;49.146;10.426;2023-04-01T11:44:41;94364.59;;;8.96;91.66
74242;BME280;62599;49.146;10.426;2023-04-01T11:52:26;94380.44;;;8.30;96.36
74242;BME280;62599;49.146;10.426;2023-04-01T11:57:43;94400.88;;;8.19;96.75
74242;BME280;62599;49.146;10.426;2023-04-01T12:25:38;94388.50;;;9.01;90.01
74242;BME280;62599;49.146;10.426;2023-04-01T12:28:24;94396.69;;;9.08;90.25
74242;BME280;62599;49.146;10.426;2023-04-01T12:55:50;94396.38;;;9.32;89.20
74242;BME280;62599;49.146;10.426;2023-04-01T13:12:31;94399.78;;;9.29;91.12
74242;BME280;62599;49.146;10.426;2023-04-01T13:18:37;94410.31;;;9.19;90.32
74242;BME280;62599;49.146;10.426;2023-04-01T13:21:13;94400.63;;;9.14;91.50
74242;BME280;62599;49.146;10.426;2023-04-01T13:24:05;94415.53;;;8.92;92.38
74242;BME280;62599;49.146;10.426;2023-04-01T13:29:31;94419.06;;;8.96;93.32
74242;BME280;62599;49.146;10.426;2023-04-01T13:34:49;94417.88;;;8.94;94.03
74242;BME280;62599;49.146;10.426;2023-04-01T13:40:02;94429.66;;;8.89;94.82
74242;BME280;62599;49.146;10.426;2023-04-01T13:42:41;94435.47;;;8.91;95.09
74242;BME280;62599;49.146;10.426;2023-04-01T13:45:19;94432.78;;;9.10;96.10
74242;BME280;62599;49.146;10.426;2023-04-01T13:59:18;94434.91;;;9.21;94.48
74242;BME280;62599;49.146;10.426;2023-04-01T14:18:45;94439.06;;;8.99;94.34
74242;BME280;62599;49.146;10.426;2023-04-01T14:30:20;94449.03;;;8.63;94.67
74242;BME280;62599;49.146;10.426;2023-04-01T14:33:23;94459.19;;;8.54;95.65
74242;BME280;62599;49.146;10.426;2023-04-01T14:41:47;94456.41;;;8.34;97.22
74242;BME280;62599;49.146;10.426;2023-04-01T14:50:23;94455.53;;;8.30;96.52
74242;BME280;62599;49.146;10.426;2023-04-01T14:52:59;94452.44;;;8.28;97.80
74242;BME280;62599;49.146;10.426;2023-04-01T14:58:13;94459.75;;;8.31;96.94
74242;BME280;62599;49.146;10.426;2023-04-01T15:01:25;94464.22;;;8.39;94.34
74242;BME280;62599;49.146;10.426;2023-04-01T15:04:09;94478.41;;;8.40;95.46
74242;BME280;62599;49.146;10.426;2023-04-01T15:07:00;94468.81;;;8.39;95.23
74242;BME280;62599;49.146;10.426;2023-04-01T15:17:43;94479.94;;;8.25;96.62
74242;BME280;62599;49.146;10.426;2023-04-01T15:26:28;94478.19;;;8.01;97.30
74242;BME280;62599;49.146;10.426;2023-04-01T15:31:53;94487.69;;;7.99;97.13
74242;BME280;62599;49.146;10.426;2023-04-01T15:37:19;94481.28;;;7.87;98.33
74242;BME280;62599;49.146;10.426;2023-04-01T15:39:51;94498.06;;;7.84;98.06
74242;BME280;62599;49.146;10.426;2023-04-01T15:48:23;94484.91;;;7.79;96.65
74242;BME280;62599;49.146;10.426;2023-04-01T15:53:54;94505.84;;;7.74;95.48
74242;BME280;62599;49.146;10.426;2023-04-01T15:56:30;94498.91;;;7.72;96.09
74242;BME280;62599;49.146;10.426;2023-04-01T16:02:14;94496.13;;;7.69;96.11
74242;BME280;62599;49.146;10.426;2023-04-01T16:07:30;94507.59;;;7.69;95.30
74242;BME280;62599;49.146;10.426;2023-04-01T16:10:41;94524.16;;;7.71;94.38
74242;BME280;62599;49.146;10.426;2023-04-01T16:26:47;94499.19;;;7.83;94.32
74242;BME280;62599;49.146;10.426;2023-04-01T16:29:33;94520.63;;;7.83;93.73
74242;BME280;62599;49.146;10.426;2023-04-01T16:37:50;94518.97;;;7.79;94.25
74242;BME280;62599;49.146;10.426;2023-04-01T16:43:16;94525.38;;;7.74;94.27
74242;BME280;62599;49.146;10.426;2023-04-01T16:45:53;94534.59;;;7.77;93.80
74242;BME280;62599;49.146;10.426;2023-04-01T16:48:45;94533.88;;;7.64;95.08
74242;BME280;62599;49.146;10.426;2023-04-01T16:51:16;94526.53;;;7.61;96.40
74242;BME280;62599;49.146;10.426;2023-04-01T16:56:13;94538.19;;;7.53;97.07
74242;BME280;62599;49.146;10.426;2023-04-01T17:01:14;94533.25;;;7.55;97.25
74242;BME280;62599;49.146;10.426;2023-04-01T17:03:46;94534.25;;;7.50;97.35
74242;BME280;62599;49.146;10.426;2023-04-01T17:16:56;94542.00;;;7.39;99.07
74242;BME280;62599;49.146;10.426;2023-04-01T17:30:38;94561.34;;;7.20;100.00
74242;BME280;62599;49.146;10.426;2023-04-01T17:41:01;94564.84;;;7.09;100.00
74242;BME280;62599;49.146;10.426;2023-04-01T17:52:32;94580.22;;;7.12;100.00
74242;BME280;62599;49.146;10.426;2023-04-01T17:58:05;94571.97;;;7.05;100.00
74242;BME280;62599;49.146;10.426;2023-04-01T18:06:36;94595.25;;;7.04;100.00
74242;BME280;62599;49.146;10.426;2023-04-01T18:14:45;94611.56;;;6.99;100.00
74242;BME280;62599;49.146;10.426;2023-04-01T18:23:23;94620.84;;;7.02;100.00
74242;BME280;62599;49.146;10.426;2023-04-01T18:26:05;94625.72;;;6.99;100.00
74242;BME280;62599;49.146;10.426;2023-04-01T18:28:39;94634.88;;;6.98;100.00
74242;BME280;62599;49.146;10.426;2023-04-01T18:31:19;94630.06;;;6.92;100.00
74242;BME280;62599;49.146;10.426;2023-04-01T18:34:02;94641.31;;;6.85;100.00
74242;BME280;62599;49.146;10.426;2023-04-01T18:36:44;94643.22;;;6.85;100.00
74242;BME280;62599;49.146;10.426;2023-04-01T18:39:23;94642.44;;;6.84;100.00
74242;BME280;62599;49.146;10.426;2023-04-01T18:42:08;94646.03;;;6.88;100.00
74242;BME280;62599;49.146;10.426;2023-04-01T18:47:42;94649.81;;;6.87;100.00
74242;BME280;62599;49.146;10.426;2023-04-01T18:52:44;94665.09;;;6.87;100.00
74242;BME280;62599;49.146;10.426;2023-04-01T18:57:54;94665.34;;;6.94;100.00
74242;BME280;62599;49.146;10.426;2023-04-01T19:00:26;94669.09;;;6.93;100.00
74242;BME280;62599;49.146;10.426;2023-04-01T19:02:58;94669.44;;;6.91;100.00
74242;BME280;62599;49.146;10.426;2023-04-01T19:05:31;94655.53;;;6.98;100.00
74242;BME280;62599;49.146;10.426;2023-04-01T19:22:20;94673.91;;;6.87;100.00
74242;BME280;62599;49.146;10.426;2023-04-01T19:27:37;94678.78;;;6.85;100.00
74242;BME280;62599;49.146;10.426;2023-04-01T19:35:59;94682.59;;;6.84;100.00
74242;BME280;62599;49.146;10.426;2023-04-01T19:41:30;94692.66;;;6.87;100.00
74242;BME280;62599;49.146;10.426;2023-04-01T19:44:09;94688.59;;;6.81;100.00
74242;BME280;62599;49.146;10.426;2023-04-01T19:49:50;94695.03;;;6.68;100.00
74242;BME280;62599;49.146;10.426;2023-04-01T19:52:23;94697.59;;;6.64;100.00
74242;BME280;62599;49.146;10.426;2023-04-01T19:58:16;94702.28;;;6.34;100.00
74242;BME280;62599;49.146;10.426;2023-04-01T20:00:52;94704.00;;;6.18;100.00
74242;BME280;62599;49.146;10.426;2023-04-01T20:14:44;94720.19;;;6.00;100.00
74242;BME280;62599;49.146;10.426;2023-04-01T20:17:24;94718.16;;;5.97;100.00
74242;BME280;62599;49.146;10.426;2023-04-01T20:20:01;94730.09;;;6.00;100.00
74242;BME280;62599;49.146;10.426;2023-04-01T20:26:02;94733.06;;;5.98;100.00
74242;BME280;62599;49.146;10.426;2023-04-01T20:44:13;94746.50;;;6.32;100.00
74242;BME280;62599;49.146;10.426;2023-04-01T20:46:56;94749.00;;;6.37;100.00
74242;BME280;62599;49.146;10.426;2023-04-01T20:49:57;94747.09;;;6.37;100.00
74242;BME280;62599;49.146;10.426;2023-04-01T20:52:32;94751.31;;;6.38;100.00
74242;BME280;62599;49.146;10.426;2023-04-01T20:55:26;94749.13;;;6.40;100.00
74242;BME280;62599;49.146;10.426;2023-04-01T21:12:28;94761.75;;;6.52;100.00
74242;BME280;62599;49.146;10.426;2023-04-01T21:25:34;94752.75;;;6.57;100.00
74242;BME280;62599;49.146;10.426;2023-04-01T21:45:40;94781.34;;;6.65;100.00
74242;BME280;62599;49.146;10.426;2023-04-01T21:48:37;94784.00;;;6.65;100.00
74242;BME280;62599;49.146;10.426;2023-04-01T21:51:43;94777.66;;;6.69;100.00
74242;BME280;62599;49.146;10.426;2023-04-01T21:54:22;94791.22;;;6.64;100.00
74242;BME280;62599;49.146;10.426;2023-04-01T22:11:26;94816.44;;;6.63;100.00
74242;BME280;62599;49.146;10.426;2023-04-01T22:14:08;94811.84;;;6.64;100.00
74242;BME280;62599;49.146;10.426;2023-04-01T22:24:57;94823.53;;;6.59;100.00
74242;BME280;62599;49.146;10.426;2023-04-01T22:30:24;94821.66;;;6.60;100.00
74242;BME280;62599;49.146;10.426;2023-04-01T22:32:50;94834.59;;;6.58;100.00
74242;BME280;62599;49.146;10.426;2023-04-01T22:35:33;94816.94;;;6.57;100.00
74242;BME280;62599;49.146;10.426;2023-04-01T22:40:48;94825.19;;;6.51;100.00
74242;BME280;62599;49.146;10.426;2023-04-01T22:48:44;94835.41;;;6.49;100.00
74242;BME280;62599;49.146;10.426;2023-04-01T22:56:15;94837.66;;;6.47;100.00
74242;BME280;62599;49.146;10.426;2023-04-01T22:58:50;94838.75;;;6.46;100.00
74242;BME280;62599;49.146;10.426;2023-04-01T23:01:24;94843.97;;;6.43;100.00
74242;BME280;62599;49.146;10.426;2023-04-01T23:03:52;94837.66;;;6.47;100.00
74242;BME280;62599;49.146;10.426;2023-04-01T23:06:26;94842.66;;;6.49;100.00
74242;BME280;62599;49.146;10.426;2023-04-01T23:11:50;94847.44;;;6.43;100.00
74242;BME280;62599;49.146;10.426;2023-04-01T23:17:01;94853.88;;;6.42;100.00
74242;BME280;62599;49.146;10.426;2023-04-01T23:22:16;94866.03;;;6.40;100.00
74242;BME280;62599;49.146;10.426;2023-04-01T23:27:34;94869.47;;;6.40;100.00
74242;BME280;62599;49.146;10.426;2023-04-01T23:30:01;94865.25;;;6.39;100.00
74242;BME280;62599;49.146;10.426;2023-04-01T23:32:27;94869.00;;;6.38;100.00
74242;BME280;62599;49.146;10.426;2023-04-01T23:34:58;94867.72;;;6.44;100.00
74242;BME280;62599;49.146;10.426;2023-04-01T23:37:25;94873.06;;;6.44;100.00
74242;BME280;62599;49.146;10.426;2023-04-01T23:39:56;94874.81;;;6.40;100.00
74242;BME280;62599;49.146;10.426;2023-04-01T23:42:28;94881.72;;;6.41;100.00
74242;BME280;62599;49.146;10.426;2023-04-01T23:44:56;94872.94;;;6.41;100.00
74242;BME280;62599;49.146;10.426;2023-04-01T23:47:25;94881.44;;;6.43;100.00
74242;BME280;62599;49.146;10.426;2023-04-01T23:49:55;94881.72;;;6.41;100.00
74242;BME280;62599;49.146;10.426;2023-04-01T23:52:27;94882.22;;;6.43;100.00
